Time;durP1;ratioP1;P1;durP2;ratioP2;P2;SDS_P1;SDS_P2;PMS_P1;PMS_P2;Temp;Humidity;BMP_temperature;BMP_pressure;BME280_temperature;BME280_humidity;BME280_pressure;Samples;Min_cycle;Max_cycle;Signal;HPM_P1;HPM_P2
2023/12/21 00:01:15;;;;;;;7.28;3.65;;;;;;;;;;4963265;28;20054;-79
2023/12/21 00:03:41;;;;;;;5.65;3.20;;;;;;;;;;4970412;28;20034;-79
2023/12/21 00:06:26;;;;;;;7.95;4.00;;;;;;;;;;4961693;28;20577;-81
2023/12/21 00:08:52;;;;;;;8.25;4.15;;;;;;;;;;4926268;29;20058;-79
2023/12/21 00:11:17;;;;;;;9.52;4.28;;;;;;;;;;4940166;28;20071;-79
2023/12/21 00:13:44;;;;;;;9.35;4.32;;;;;;;;;;4922481;29;20035;-79
2023/12/21 00:16:09;;;;;;;8.95;4.90;;;;;;;;;;4924495;28;20079;-79
2023/12/21 00:18:35;;;;;;;10.15;5.28;;;;;;;;;;4931196;29;20039;-79
2023/12/21 00:21:00;;;;;;;9.27;5.72;;;;;;;;;;4907703;29;20047;-80
2023/12/21 00:23:26;;;;;;;10.48;5.43;;;;;;;;;;4905779;29;20428;-79
2023/12/21 00:25:52;;;;;;;10.95;5.70;;;;;;;;;;4920855;29;20038;-80
2023/12/21 00:28:17;;;;;;;9.77;4.80;;;;;;;;;;4938652;29;20183;-80
2023/12/21 00:30:43;;;;;;;9.50;5.18;;;;;;;;;;4938356;29;20039;-80
2023/12/21 00:33:08;;;;;;;8.45;4.50;;;;;;;;;;4912413;29;20039;-80
2023/12/21 00:35:34;;;;;;;9.65;4.95;;;;;;;;;;4923427;29;20521;-80
2023/12/21 00:38:00;;;;;;;10.00;5.07;;;;;;;;;;4922655;28;20044;-80
2023/12/21 00:40:26;;;;;;;10.15;5.00;;;;;;;;;;4937961;29;20045;-80
2023/12/21 00:42:51;;;;;;;9.32;4.60;;;;;;;;;;4929015;29;20472;-79
2023/12/21 00:45:17;;;;;;;9.13;4.35;;;;;;;;;;4941390;28;20041;-80
2023/12/21 00:47:43;;;;;;;9.05;4.75;;;;;;;;;;4960307;28;20086;-80
2023/12/21 00:50:08;;;;;;;8.52;4.53;;;;;;;;;;4967327;28;20046;-80
2023/12/21 00:52:34;;;;;;;7.18;4.03;;;;;;;;;;4976426;28;20182;-79
2023/12/21 00:55:00;;;;;;;8.88;3.85;;;;;;;;;;4964609;28;20034;-80
2023/12/21 00:57:25;;;;;;;6.20;3.45;;;;;;;;;;4959804;28;20047;-80
2023/12/21 00:59:51;;;;;;;6.75;3.63;;;;;;;;;;4978107;28;20034;-80
2023/12/21 01:02:16;;;;;;;7.32;3.55;;;;;;;;;;4980174;28;20050;-79
2023/12/21 01:04:41;;;;;;;6.43;2.67;;;;;;;;;;4968938;28;20043;-79
2023/12/21 01:07:07;;;;;;;8.30;3.20;;;;;;;;;;4976896;28;20031;-80
2023/12/21 01:09:32;;;;;;;5.20;2.80;;;;;;;;;;4978400;28;20056;-80
2023/12/21 01:11:58;;;;;;;7.18;2.95;;;;;;;;;;4960411;28;20038;-80
2023/12/21 01:14:24;;;;;;;6.57;2.72;;;;;;;;;;4976663;28;20133;-81
2023/12/21 01:17:09;;;;;;;5.15;2.53;;;;;;;;;;4966335;28;20181;-80
2023/12/21 01:19:35;;;;;;;4.53;2.30;;;;;;;;;;4986396;28;20034;-78
2023/12/21 01:22:02;;;;;;;10.60;2.55;;;;;;;;;;4988125;28;20088;-81
2023/12/21 01:24:27;;;;;;;5.32;2.50;;;;;;;;;;4971162;28;20050;-80
2023/12/21 01:26:56;;;;;;;4.47;2.30;;;;;;;;;;4984519;28;20371;-81
2023/12/21 01:29:22;;;;;;;4.00;2.15;;;;;;;;;;4968907;28;20513;-81
2023/12/21 01:31:47;;;;;;;4.40;2.10;;;;;;;;;;4990082;28;20045;-81
2023/12/21 01:34:13;;;;;;;4.55;2.25;;;;;;;;;;4971160;28;20057;-81
2023/12/21 01:36:39;;;;;;;3.63;1.92;;;;;;;;;;5000869;28;20037;-78
2023/12/21 01:39:06;;;;;;;4.05;2.03;;;;;;;;;;4999705;28;20061;-78
2023/12/21 01:41:32;;;;;;;3.90;1.83;;;;;;;;;;4984355;28;20049;-79
2023/12/21 01:43:58;;;;;;;5.22;2.28;;;;;;;;;;4984841;28;20037;-79
2023/12/21 01:46:23;;;;;;;4.50;1.90;;;;;;;;;;5001966;28;20042;-80
2023/12/21 01:48:49;;;;;;;3.50;1.70;;;;;;;;;;4986042;28;20489;-79
2023/12/21 01:51:15;;;;;;;4.10;1.65;;;;;;;;;;4968508;28;20896;-79
2023/12/21 01:53:41;;;;;;;4.47;1.58;;;;;;;;;;4981222;28;20061;-81
2023/12/21 01:56:10;;;;;;;3.35;1.80;;;;;;;;;;4959329;28;20045;-80
2023/12/21 01:58:36;;;;;;;3.65;1.52;;;;;;;;;;4966860;28;20046;-80
2023/12/21 02:01:01;;;;;;;3.75;1.63;;;;;;;;;;4958313;28;20069;-80
2023/12/21 02:03:28;;;;;;;3.95;1.60;;;;;;;;;;4981688;28;20031;-80
2023/12/21 02:05:53;;;;;;;2.83;1.50;;;;;;;;;;4959211;28;20039;-80
2023/12/21 02:08:19;;;;;;;3.55;1.60;;;;;;;;;;4967757;28;20039;-81
2023/12/21 02:10:44;;;;;;;3.15;1.52;;;;;;;;;;4961238;28;20049;-78
2023/12/21 02:13:09;;;;;;;3.28;1.63;;;;;;;;;;4979048;28;20134;-80
2023/12/21 02:15:35;;;;;;;4.43;1.40;;;;;;;;;;4970609;28;20043;-79
2023/12/21 02:18:03;;;;;;;3.20;1.50;;;;;;;;;;4982879;28;20133;-80
2023/12/21 02:20:28;;;;;;;;;;;;;;;;;;4987004;28;20073;-79
2023/12/21 02:22:56;;;;;;;3.88;1.30;;;;;;;;;;4961966;28;19954;-80
2023/12/21 02:25:22;;;;;;;2.90;1.15;;;;;;;;;;4982012;28;20096;-80
2023/12/21 02:27:51;;;;;;;3.20;1.50;;;;;;;;;;4978557;28;20034;-79
2023/12/21 02:30:17;;;;;;;3.47;1.50;;;;;;;;;;4980695;28;20141;-79
2023/12/21 02:32:42;;;;;;;2.90;1.40;;;;;;;;;;4980496;28;20661;-80
2023/12/21 02:35:08;;;;;;;2.88;1.23;;;;;;;;;;4981053;28;20046;-80
2023/12/21 02:37:33;;;;;;;2.90;1.20;;;;;;;;;;4980666;28;20039;-80
2023/12/21 02:39:59;;;;;;;2.28;1.17;;;;;;;;;;4982469;28;20061;-79
2023/12/21 02:42:24;;;;;;;2.75;1.27;;;;;;;;;;4977681;28;20100;-80
2023/12/21 02:44:49;;;;;;;2.83;1.20;;;;;;;;;;4982336;28;20483;-81
2023/12/21 02:47:15;;;;;;;2.22;1.20;;;;;;;;;;4962289;28;20088;-80
2023/12/21 02:49:40;;;;;;;2.85;1.45;;;;;;;;;;4964281;28;20037;-81
2023/12/21 02:52:09;;;;;;;2.53;1.08;;;;;;;;;;4978370;28;20057;-79
2023/12/21 02:54:34;;;;;;;2.25;1.10;;;;;;;;;;4981604;28;20117;-79
2023/12/21 02:57:00;;;;;;;2.10;1.10;;;;;;;;;;4977831;28;20557;-80
2023/12/21 02:59:26;;;;;;;3.28;1.48;;;;;;;;;;4979227;28;20077;-80
2023/12/21 03:01:51;;;;;;;2.38;1.20;;;;;;;;;;4971025;28;20556;-80
2023/12/21 03:04:17;;;;;;;2.30;1.13;;;;;;;;;;4975488;28;20042;-78
2023/12/21 03:06:43;;;;;;;3.10;1.42;;;;;;;;;;4967408;28;20058;-80
2023/12/21 03:09:09;;;;;;;2.20;1.13;;;;;;;;;;4961844;28;20077;-81
2023/12/21 03:11:35;;;;;;;3.88;1.40;;;;;;;;;;4968426;28;20498;-80
2023/12/21 03:14:22;;;;;;;2.50;1.23;;;;;;;;;;4962865;28;20068;-81
2023/12/21 03:16:49;;;;;;;3.72;1.77;;;;;;;;;;4965219;28;20034;-80
2023/12/21 03:19:14;;;;;;;3.60;1.48;;;;;;;;;;4962596;28;20039;-79
2023/12/21 03:21:40;;;;;;;2.28;1.27;;;;;;;;;;4963686;28;20042;-82
2023/12/21 03:24:06;;;;;;;3.55;1.60;;;;;;;;;;4964688;28;20139;-81
2023/12/21 03:26:31;;;;;;;2.60;1.33;;;;;;;;;;4947445;28;20449;-83
2023/12/21 03:28:57;;;;;;;2.92;1.50;;;;;;;;;;4950483;28;20062;-80
2023/12/21 03:31:23;;;;;;;2.58;1.38;;;;;;;;;;4952533;28;20109;-80
2023/12/21 03:33:49;;;;;;;2.90;1.58;;;;;;;;;;4977825;28;20035;-81
2023/12/21 03:36:14;;;;;;;4.05;1.60;;;;;;;;;;4960363;28;20112;-81
2023/12/21 03:38:40;;;;;;;3.20;1.75;;;;;;;;;;4966141;28;20038;-81
2023/12/21 03:41:05;;;;;;;3.78;1.63;;;;;;;;;;4955011;28;20042;-82
2023/12/21 03:43:31;;;;;;;3.25;1.70;;;;;;;;;;4953158;28;20505;-81
2023/12/21 03:45:56;;;;;;;3.40;1.52;;;;;;;;;;4950370;28;20043;-81
2023/12/21 03:48:24;;;;;;;4.50;2.22;;;;;;;;;;4959491;28;20047;-81
2023/12/21 03:50:50;;;;;;;3.92;1.98;;;;;;;;;;4952548;28;20030;-80
2023/12/21 03:53:18;;;;;;;3.40;2.05;;;;;;;;;;4978505;28;20042;-81
2023/12/21 03:55:44;;;;;;;4.95;1.92;;;;;;;;;;4963647;28;20616;-81
2023/12/21 03:58:09;;;;;;;3.40;1.95;;;;;;;;;;4976069;28;20034;-81
2023/12/21 04:00:35;;;;;;;2.95;1.88;;;;;;;;;;4961946;28;20053;-81
2023/12/21 04:03:01;;;;;;;5.15;2.20;;;;;;;;;;4962412;28;20034;-81
2023/12/21 04:05:26;;;;;;;3.67;1.83;;;;;;;;;;4972985;28;20041;-81
2023/12/21 04:07:52;;;;;;;3.53;2.40;;;;;;;;;;4976451;28;20093;-80
2023/12/21 04:10:17;;;;;;;3.60;2.10;;;;;;;;;;4977037;28;20489;-79
2023/12/21 04:12:43;;;;;;;3.00;1.80;;;;;;;;;;4983602;28;20065;-80
2023/12/21 04:15:29;;;;;;;4.97;2.10;;;;;;;;;;4968892;28;20049;-80
2023/12/21 04:17:54;;;;;;;4.75;2.38;;;;;;;;;;4962355;28;20039;-80
2023/12/21 04:20:19;;;;;;;3.65;2.03;;;;;;;;;;4942540;28;20039;-80
2023/12/21 04:22:45;;;;;;;3.60;2.10;;;;;;;;;;4925854;28;20625;-80
2023/12/21 04:25:11;;;;;;;3.30;2.00;;;;;;;;;;4935687;28;20102;-80
2023/12/21 04:27:37;;;;;;;3.50;1.98;;;;;;;;;;4940199;28;20031;-79
2023/12/21 04:30:03;;;;;;;3.95;2.10;;;;;;;;;;4944007;28;20038;-81
2023/12/21 04:32:28;;;;;;;4.22;2.30;;;;;;;;;;4959014;28;20474;-80
2023/12/21 04:34:54;;;;;;;4.25;2.25;;;;;;;;;;4957047;28;20073;-80
2023/12/21 04:37:21;;;;;;;3.80;2.20;;;;;;;;;;4941021;28;20035;-80
2023/12/21 04:39:47;;;;;;;3.40;1.90;;;;;;;;;;4932237;28;20085;-80
2023/12/21 04:42:13;;;;;;;3.35;1.70;;;;;;;;;;4938333;28;20118;-80
2023/12/21 04:44:38;;;;;;;5.80;2.00;;;;;;;;;;4959105;28;20138;-78
2023/12/21 04:47:08;;;;;;;3.30;1.92;;;;;;;;;;4943368;28;20042;-77
2023/12/21 04:49:34;;;;;;;3.50;1.70;;;;;;;;;;4943509;28;20078;-78
2023/12/21 04:51:59;;;;;;;3.70;2.10;;;;;;;;;;4956513;28;20035;-77
2023/12/21 04:54:24;;;;;;;5.38;1.98;;;;;;;;;;4946037;28;20245;-79
2023/12/21 04:56:50;;;;;;;3.75;1.70;;;;;;;;;;4965903;28;20042;-79
2023/12/21 04:59:15;;;;;;;2.97;1.67;;;;;;;;;;4961046;28;20039;-78
2023/12/21 05:01:41;;;;;;;3.33;1.80;;;;;;;;;;4961177;28;20050;-79
2023/12/21 05:04:15;;;;;;;2.97;1.58;;;;;;;;;;4961277;28;20034;-84
2023/12/21 05:06:41;;;;;;;2.90;1.40;;;;;;;;;;4957179;28;20157;-85
2023/12/21 05:09:14;;;;;;;2.85;1.30;;;;;;;;;;4944309;28;20467;-87
2023/12/21 05:12:17;;;;;;;3.03;1.48;;;;;;;;;;4945934;28;20077;-84
2023/12/21 05:14:45;;;;;;;2.88;1.42;;;;;;;;;;4980207;28;20070;-84
2023/12/21 05:17:17;;;;;;;2.40;1.17;;;;;;;;;;4948497;28;20458;-86
2023/12/21 05:19:44;;;;;;;2.42;0.95;;;;;;;;;;4944795;28;20059;-84
2023/12/21 05:22:12;;;;;;;3.33;1.20;;;;;;;;;;4976205;28;20044;-86
2023/12/21 05:24:40;;;;;;;3.20;1.25;;;;;;;;;;4975339;28;20030;-82
2023/12/21 05:27:06;;;;;;;2.40;1.05;;;;;;;;;;4974421;28;20490;-82
2023/12/21 05:29:52;;;;;;;2.63;1.00;;;;;;;;;;4976292;28;20042;-80
2023/12/21 05:32:17;;;;;;;2.60;1.25;;;;;;;;;;4955422;28;20989;-81
2023/12/21 05:34:42;;;;;;;2.97;1.00;;;;;;;;;;4946731;28;20031;-80
2023/12/21 05:37:08;;;;;;;2.05;1.10;;;;;;;;;;4940099;28;20040;-81
2023/12/21 05:39:35;;;;;;;2.33;1.10;;;;;;;;;;4956766;28;20046;-79
2023/12/21 05:42:01;;;;;;;2.95;1.30;;;;;;;;;;4958465;28;20042;-79
2023/12/21 05:44:26;;;;;;;2.20;1.10;;;;;;;;;;4946688;28;20054;-80
2023/12/21 05:46:52;;;;;;;2.85;1.00;;;;;;;;;;4937964;28;20039;-80
2023/12/21 05:49:17;;;;;;;2.45;1.10;;;;;;;;;;4944936;28;20055;-79
2023/12/21 05:51:43;;;;;;;2.72;1.15;;;;;;;;;;4934584;28;20031;-78
2023/12/21 05:54:11;;;;;;;2.97;1.30;;;;;;;;;;4933311;28;20130;-81
2023/12/21 05:56:36;;;;;;;2.75;1.30;;;;;;;;;;4947264;28;20042;-77
2023/12/21 05:59:02;;;;;;;3.65;1.42;;;;;;;;;;4943361;28;20035;-78
2023/12/21 06:01:27;;;;;;;2.45;1.20;;;;;;;;;;4960396;28;20102;-79
2023/12/21 06:03:52;;;;;;;2.30;1.10;;;;;;;;;;4960593;28;20394;-77
2023/12/21 06:06:18;;;;;;;2.55;1.40;;;;;;;;;;4932719;28;20039;-81
2023/12/21 06:08:44;;;;;;;2.28;1.00;;;;;;;;;;4951666;28;20409;-77
2023/12/21 06:11:09;;;;;;;1.83;1.00;;;;;;;;;;4980711;28;20405;-79
2023/12/21 06:13:35;;;;;;;2.40;1.20;;;;;;;;;;4980674;28;20541;-79
2023/12/21 06:16:00;;;;;;;2.72;1.20;;;;;;;;;;4979334;28;20085;-79
2023/12/21 06:18:26;;;;;;;3.05;1.10;;;;;;;;;;4981072;28;20081;-78
2023/12/21 06:20:51;;;;;;;2.70;1.30;;;;;;;;;;4980315;28;20058;-78
2023/12/21 06:23:32;;;;;;;2.47;1.13;;;;;;;;;;4953743;28;20514;-78
2023/12/21 06:25:58;;;;;;;2.40;1.08;;;;;;;;;;4968712;28;20034;-79
2023/12/21 06:28:23;;;;;;;2.03;1.00;;;;;;;;;;4964904;28;20043;-77
2023/12/21 06:30:48;;;;;;;1.92;0.90;;;;;;;;;;4969604;28;20489;-77
2023/12/21 06:33:14;;;;;;;1.90;0.93;;;;;;;;;;4980006;28;20565;-78
2023/12/21 06:35:39;;;;;;;3.25;1.20;;;;;;;;;;4978517;28;20043;-79
2023/12/21 06:38:06;;;;;;;3.33;1.40;;;;;;;;;;4976471;28;20059;-78
2023/12/21 06:40:32;;;;;;;2.77;1.30;;;;;;;;;;4970796;28;20034;-78
2023/12/21 06:42:58;;;;;;;3.00;1.30;;;;;;;;;;4984865;28;20041;-78
2023/12/21 06:45:25;;;;;;;2.42;1.30;;;;;;;;;;4968542;28;20498;-83
2023/12/21 06:47:51;;;;;;;3.47;1.73;;;;;;;;;;4971477;28;20057;-82
2023/12/21 06:50:16;;;;;;;2.88;1.52;;;;;;;;;;4989538;28;20034;-80
2023/12/21 06:52:42;;;;;;;3.40;1.52;;;;;;;;;;4981657;28;20042;-80
2023/12/21 06:55:08;;;;;;;3.40;1.30;;;;;;;;;;4981155;28;20039;-81
2023/12/21 06:57:34;;;;;;;2.50;1.40;;;;;;;;;;4963139;28;20066;-81
2023/12/21 06:59:59;;;;;;;3.40;1.33;;;;;;;;;;4977778;28;20555;-82
2023/12/21 07:02:25;;;;;;;3.35;1.35;;;;;;;;;;4986423;28;20046;-81
2023/12/21 07:04:50;;;;;;;3.03;1.10;;;;;;;;;;4982998;28;20097;-81
2023/12/21 07:07:16;;;;;;;4.32;1.40;;;;;;;;;;4968067;28;20034;-80
2023/12/21 07:09:41;;;;;;;2.35;1.10;;;;;;;;;;4966537;28;20034;-80
2023/12/21 07:12:07;;;;;;;3.65;1.10;;;;;;;;;;4982100;28;20038;-81
2023/12/21 07:14:33;;;;;;;2.75;1.20;;;;;;;;;;4964742;28;20717;-83
2023/12/21 07:16:58;;;;;;;2.75;1.17;;;;;;;;;;4970042;28;20085;-82
2023/12/21 07:19:24;;;;;;;2.05;1.00;;;;;;;;;;4976598;28;20405;-82
2023/12/21 07:21:52;;;;;;;2.88;1.10;;;;;;;;;;4972285;28;20364;-81
2023/12/21 07:24:18;;;;;;;2.20;1.10;;;;;;;;;;4981542;28;20394;-81
2023/12/21 07:26:44;;;;;;;3.42;1.30;;;;;;;;;;4986584;28;20047;-82
2023/12/21 07:29:10;;;;;;;2.05;1.08;;;;;;;;;;4982518;28;20924;-82
2023/12/21 07:31:41;;;;;;;2.60;1.20;;;;;;;;;;4963243;28;20039;-80
2023/12/21 07:34:08;;;;;;;3.42;1.30;;;;;;;;;;4970504;28;20162;-82
2023/12/21 07:36:33;;;;;;;2.50;1.27;;;;;;;;;;4981022;28;20043;-82
2023/12/21 07:38:59;;;;;;;3.80;1.73;;;;;;;;;;4980016;28;20035;-81
2023/12/21 07:41:25;;;;;;;5.22;1.70;;;;;;;;;;4968455;28;20407;-81
2023/12/21 07:43:50;;;;;;;3.20;1.50;;;;;;;;;;4973228;28;20120;-80
2023/12/21 07:46:16;;;;;;;3.60;1.70;;;;;;;;;;4968469;28;20397;-80
2023/12/21 07:48:41;;;;;;;4.65;1.58;;;;;;;;;;4969365;28;20045;-80
2023/12/21 07:51:09;;;;;;;3.40;1.73;;;;;;;;;;5549474;23;20122;-84
2023/12/21 07:53:36;;;;;;;3.05;1.60;;;;;;;;;;4969083;28;20433;-85
2023/12/21 07:56:22;;;;;;;4.20;1.30;;;;;;;;;;4941970;28;20363;-85
2023/12/21 07:58:48;;;;;;;3.70;1.60;;;;;;;;;;4924518;28;20635;-84
2023/12/21 08:01:14;;;;;;;2.70;1.50;;;;;;;;;;4930667;29;20110;-84
2023/12/21 08:03:40;;;;;;;3.28;1.38;;;;;;;;;;4938026;29;20035;-85
2023/12/21 08:06:05;;;;;;;2.70;1.20;;;;;;;;;;4907117;29;20468;-84
2023/12/21 08:08:31;;;;;;;2.80;1.35;;;;;;;;;;4925361;28;20089;-86
2023/12/21 08:10:57;;;;;;;2.88;1.40;;;;;;;;;;4934152;28;20046;-85
2023/12/21 08:13:26;;;;;;;3.80;1.63;;;;;;;;;;4920691;28;20453;-85
2023/12/21 08:15:52;;;;;;;3.17;1.58;;;;;;;;;;4918583;28;20716;-86
2023/12/21 08:18:18;;;;;;;3.17;1.48;;;;;;;;;;4932869;28;20035;-86
2023/12/21 08:20:47;;;;;;;2.70;1.20;;;;;;;;;;4902437;28;20533;-86
2023/12/21 08:23:15;;;;;;;3.78;1.40;;;;;;;;;;4936104;28;20066;-87
2023/12/21 08:25:48;;;;;;;3.45;1.10;;;;;;;;;;4942923;28;20090;-85
2023/12/21 08:28:18;;;;;;;1.90;0.95;;;;;;;;;;4938655;28;20146;-89
2023/12/21 08:30:48;;;;;;;2.47;1.05;;;;;;;;;;4919950;28;20047;-85
2023/12/21 08:33:13;;;;;;;1.75;0.90;;;;;;;;;;4935014;28;20130;-85
2023/12/21 08:35:42;;;;;;;1.67;0.85;;;;;;;;;;4925625;28;20125;-86
2023/12/21 08:38:14;;;;;;;1.73;0.82;;;;;;;;;;4951236;28;20374;-85
2023/12/21 08:40:42;;;;;;;2.45;1.02;;;;;;;;;;4947144;28;20041;-88
2023/12/21 08:43:09;;;;;;;2.58;0.80;;;;;;;;;;4958054;28;20038;-87
2023/12/21 08:45:34;;;;;;;2.50;0.90;;;;;;;;;;4964522;28;20493;-86
2023/12/21 08:48:08;;;;;;;2.03;0.70;;;;;;;;;;4979796;28;20270;-85
2023/12/21 08:50:40;;;;;;;2.10;0.82;;;;;;;;;;4949182;28;20073;-85
2023/12/21 08:53:10;;;;;;;1.92;0.70;;;;;;;;;;4976579;28;20064;-86
2023/12/21 08:55:36;;;;;;;1.63;0.60;;;;;;;;;;4998458;28;20049;-86
2023/12/21 08:58:01;;;;;;;2.97;0.82;;;;;;;;;;4981318;28;20035;-85
2023/12/21 09:00:27;;;;;;;2.60;0.65;;;;;;;;;;4971850;28;20125;-84
2023/12/21 09:02:55;;;;;;;2.67;0.50;;;;;;;;;;4971876;28;20049;-86
2023/12/21 09:05:24;;;;;;;1.27;0.60;;;;;;;;;;4979070;28;20485;-85
2023/12/21 09:07:50;;;;;;;1.55;0.60;;;;;;;;;;4985706;28;20533;-84
2023/12/21 09:10:16;;;;;;;2.70;0.70;;;;;;;;;;4985450;28;20109;-84
2023/12/21 09:12:46;;;;;;;2.30;0.80;;;;;;;;;;4972770;28;20034;-85
2023/12/21 09:15:13;;;;;;;12.82;1.50;;;;;;;;;;4984241;28;20069;-86
2023/12/21 09:17:41;;;;;;;1.67;0.60;;;;;;;;;;4968346;28;20080;-85
2023/12/21 09:20:13;;;;;;;3.42;1.00;;;;;;;;;;4990160;28;20038;-84
2023/12/21 09:22:41;;;;;;;1.65;0.70;;;;;;;;;;4965013;28;20053;-85
2023/12/21 09:25:08;;;;;;;1.25;0.55;;;;;;;;;;4978933;28;20113;-84
2023/12/21 09:27:34;;;;;;;3.28;0.73;;;;;;;;;;4970551;28;20076;-83
2023/12/21 09:30:26;;;;;;;1.27;0.57;;;;;;;;;;4992341;28;20053;-84
2023/12/21 09:32:51;;;;;;;1.42;0.70;;;;;;;;;;4984423;28;20033;-85
2023/12/21 09:35:17;;;;;;;1.58;0.60;;;;;;;;;;5007133;28;20088;-85
2023/12/21 09:37:45;;;;;;;1.70;0.60;;;;;;;;;;4997137;28;20484;-85
2023/12/21 09:40:18;;;;;;;1.30;0.50;;;;;;;;;;4983948;28;20514;-85
2023/12/21 09:42:47;;;;;;;1.13;0.40;;;;;;;;;;5004303;28;20035;-87
2023/12/21 09:45:16;;;;;;;1.10;0.40;;;;;;;;;;4990744;28;20132;-86
2023/12/21 09:47:42;;;;;;;1.05;0.40;;;;;;;;;;4953466;28;20494;-84
2023/12/21 09:50:12;;;;;;;1.02;0.40;;;;;;;;;;4977247;28;20032;-85
2023/12/21 09:52:39;;;;;;;1.15;0.45;;;;;;;;;;5000603;28;20420;-85
2023/12/21 09:55:07;;;;;;;2.90;0.63;;;;;;;;;;4990441;28;20149;-85
2023/12/21 09:57:38;;;;;;;0.98;0.40;;;;;;;;;;5004345;28;20499;-85
2023/12/21 10:00:06;;;;;;;1.98;0.50;;;;;;;;;;5000011;28;20432;-84
2023/12/21 10:02:32;;;;;;;0.60;0.40;;;;;;;;;;4976689;28;20133;-86
2023/12/21 10:04:57;;;;;;;1.25;0.50;;;;;;;;;;4997335;28;20433;-85
2023/12/21 10:07:24;;;;;;;1.02;0.40;;;;;;;;;;4972332;28;20053;-85
2023/12/21 10:09:50;;;;;;;1.13;0.40;;;;;;;;;;4987640;28;20038;-85
2023/12/21 10:12:21;;;;;;;1.25;0.50;;;;;;;;;;4984142;28;20354;-83
2023/12/21 10:14:59;;;;;;;1.90;0.50;;;;;;;;;;4994493;28;20084;-85
2023/12/21 10:17:25;;;;;;;1.00;0.40;;;;;;;;;;4980551;28;20037;-85
2023/12/21 10:19:56;;;;;;;1.30;0.40;;;;;;;;;;4987959;28;20050;-84
2023/12/21 10:22:22;;;;;;;0.65;0.40;;;;;;;;;;4984735;28;20129;-84
2023/12/21 10:24:49;;;;;;;0.85;0.35;;;;;;;;;;4998007;28;20105;-84
2023/12/21 10:27:18;;;;;;;2.28;0.43;;;;;;;;;;4990477;28;20488;-85
2023/12/21 10:29:56;;;;;;;1.00;0.40;;;;;;;;;;5011904;28;20068;-85
2023/12/21 10:32:22;;;;;;;1.00;0.40;;;;;;;;;;4979650;28;20405;-86
2023/12/21 10:34:49;;;;;;;0.68;0.30;;;;;;;;;;4982400;28;20045;-86
2023/12/21 10:37:17;;;;;;;1.83;0.60;;;;;;;;;;4988604;28;20046;-87
2023/12/21 10:39:44;;;;;;;1.65;0.60;;;;;;;;;;5004913;28;20400;-85
2023/12/21 10:42:15;;;;;;;2.97;0.50;;;;;;;;;;4972062;28;20177;-85
2023/12/21 10:44:45;;;;;;;0.63;0.30;;;;;;;;;;4985291;28;20083;-86
2023/12/21 10:47:12;;;;;;;5.25;0.45;;;;;;;;;;4983099;28;20165;-84
2023/12/21 10:49:45;;;;;;;1.23;0.38;;;;;;;;;;5001576;28;20565;-85
2023/12/21 10:52:12;;;;;;;2.85;0.30;;;;;;;;;;4975088;28;20070;-84
2023/12/21 10:54:42;;;;;;;0.98;0.40;;;;;;;;;;4980546;28;20091;-83
2023/12/21 10:57:14;;;;;;;1.00;0.40;;;;;;;;;;4986504;28;20109;-84
2023/12/21 10:59:40;;;;;;;1.13;0.40;;;;;;;;;;5000201;28;20037;-85
2023/12/21 11:02:10;;;;;;;1.25;0.40;;;;;;;;;;4981998;28;20554;-84
2023/12/21 11:04:42;;;;;;;1.88;0.50;;;;;;;;;;4981865;28;20046;-84
2023/12/21 11:07:09;;;;;;;1.02;0.40;;;;;;;;;;4967439;28;20664;-84
2023/12/21 11:09:35;;;;;;;;;;;;;;;;;;4996800;28;20639;-85
2023/12/21 11:12:04;;;;;;;1.00;0.40;;;;;;;;;;4995247;28;19920;-84
2023/12/21 11:14:29;;;;;;;2.60;0.55;;;;;;;;;;4998704;28;20048;-84
2023/12/21 11:17:00;;;;;;;1.48;0.60;;;;;;;;;;4998052;28;20034;-85
2023/12/21 11:19:38;;;;;;;1.20;0.40;;;;;;;;;;4981012;28;20034;-85
2023/12/21 11:22:04;;;;;;;1.23;0.30;;;;;;;;;;5000173;28;20126;-84
2023/12/21 11:24:29;;;;;;;1.45;0.43;;;;;;;;;;5003916;28;20051;-84
2023/12/21 11:26:55;;;;;;;0.77;0.30;;;;;;;;;;4989088;28;20551;-85
2023/12/21 11:29:27;;;;;;;1.88;0.40;;;;;;;;;;5005260;28;20129;-84
2023/12/21 11:31:54;;;;;;;1.13;0.40;;;;;;;;;;4986987;28;20485;-84
2023/12/21 11:34:24;;;;;;;0.88;0.38;;;;;;;;;;4992947;28;20042;-83
2023/12/21 11:36:58;;;;;;;3.17;0.50;;;;;;;;;;4975322;28;20113;-84
2023/12/21 11:39:27;;;;;;;2.17;0.40;;;;;;;;;;4977868;28;20501;-82
2023/12/21 11:41:59;;;;;;;1.83;0.50;;;;;;;;;;4985677;28;20072;-84
2023/12/21 11:44:37;;;;;;;1.30;0.40;;;;;;;;;;5004591;28;20034;-83
2023/12/21 11:47:12;;;;;;;1.15;0.30;;;;;;;;;;4986812;28;20085;-82
2023/12/21 11:49:38;;;;;;;1.15;0.50;;;;;;;;;;4980182;28;20173;-83
2023/12/21 11:52:04;;;;;;;2.92;0.40;;;;;;;;;;5002411;28;20134;-82
2023/12/21 11:54:31;;;;;;;0.90;0.30;;;;;;;;;;4981525;28;20046;-81
2023/12/21 11:57:10;;;;;;;1.05;0.40;;;;;;;;;;4996748;28;20180;-84
2023/12/21 11:59:36;;;;;;;1.08;0.43;;;;;;;;;;5002243;28;20124;-83
2023/12/21 12:02:12;;;;;;;1.30;0.60;;;;;;;;;;4969367;28;20029;-82
2023/12/21 12:04:38;;;;;;;1.58;0.70;;;;;;;;;;4984830;28;20542;-82
2023/12/21 12:07:04;;;;;;;0.80;0.40;;;;;;;;;;4989348;28;20118;-83
2023/12/21 12:09:30;;;;;;;1.33;0.40;;;;;;;;;;4992028;28;20551;-83
2023/12/21 12:11:56;;;;;;;1.63;0.40;;;;;;;;;;4996754;28;20041;-82
2023/12/21 12:14:23;;;;;;;1.30;0.43;;;;;;;;;;4999361;28;20076;-83
2023/12/21 12:16:49;;;;;;;0.88;0.30;;;;;;;;;;4989795;28;20432;-82
2023/12/21 12:19:15;;;;;;;1.17;0.40;;;;;;;;;;4990399;28;20038;-82
2023/12/21 12:21:41;;;;;;;1.23;0.45;;;;;;;;;;4978057;28;20045;-84
2023/12/21 12:24:10;;;;;;;0.90;0.40;;;;;;;;;;4991312;28;20115;-82
2023/12/21 12:26:36;;;;;;;0.88;0.30;;;;;;;;;;4987399;28;20069;-83
2023/12/21 12:29:01;;;;;;;0.70;0.40;;;;;;;;;;4978387;28;20030;-83
2023/12/21 12:31:27;;;;;;;2.28;0.45;;;;;;;;;;4951376;28;20041;-81
2023/12/21 12:33:53;;;;;;;1.60;0.60;;;;;;;;;;4976642;28;20113;-82
2023/12/21 12:36:22;;;;;;;1.40;0.50;;;;;;;;;;5003606;28;20053;-83
2023/12/21 12:38:49;;;;;;;1.48;0.60;;;;;;;;;;4967905;28;20026;-81
2023/12/21 12:41:21;;;;;;;2.03;0.55;;;;;;;;;;4963352;28;20144;-84
2023/12/21 12:43:50;;;;;;;1.58;0.60;;;;;;;;;;4997365;28;20650;-83
2023/12/21 12:46:24;;;;;;;1.13;0.40;;;;;;;;;;4981707;28;20026;-83
2023/12/21 12:49:04;;;;;;;0.85;0.40;;;;;;;;;;5014105;28;20040;-83
2023/12/21 12:51:37;;;;;;;0.98;0.50;;;;;;;;;;4990401;28;20042;-84
2023/12/21 12:54:06;;;;;;;1.35;0.52;;;;;;;;;;4990143;28;20041;-84
2023/12/21 12:56:31;;;;;;;2.03;0.60;;;;;;;;;;4987444;28;20026;-85
2023/12/21 12:58:57;;;;;;;1.55;0.55;;;;;;;;;;5014641;28;20040;-84
2023/12/21 13:01:23;;;;;;;1.17;0.43;;;;;;;;;;4986635;28;20038;-85
2023/12/21 13:03:53;;;;;;;1.35;0.47;;;;;;;;;;4990532;28;20121;-84
2023/12/21 13:06:19;;;;;;;0.82;0.40;;;;;;;;;;4996743;28;20449;-84
2023/12/21 13:08:47;;;;;;;1.83;0.60;;;;;;;;;;4982372;28;20034;-84
2023/12/21 13:11:13;;;;;;;1.10;0.50;;;;;;;;;;4986743;28;20050;-84
2023/12/21 13:13:38;;;;;;;1.15;0.40;;;;;;;;;;5004601;28;20043;-84
2023/12/21 13:16:05;;;;;;;0.90;0.40;;;;;;;;;;4962952;28;20572;-85
2023/12/21 13:18:31;;;;;;;1.10;0.47;;;;;;;;;;4971136;28;20129;-84
2023/12/21 13:20:57;;;;;;;2.97;0.50;;;;;;;;;;4989194;28;20125;-84
2023/12/21 13:23:23;;;;;;;1.20;0.40;;;;;;;;;;4983224;28;20033;-83
2023/12/21 13:25:48;;;;;;;1.75;0.60;;;;;;;;;;5019033;28;20030;-83
2023/12/21 13:28:14;;;;;;;1.38;0.50;;;;;;;;;;5002708;28;20530;-82
2023/12/21 13:30:41;;;;;;;1.77;0.45;;;;;;;;;;4997169;28;20121;-83
2023/12/21 13:33:10;;;;;;;2.20;0.40;;;;;;;;;;4988556;28;20180;-83
2023/12/21 13:35:47;;;;;;;1.90;0.50;;;;;;;;;;5000638;28;20621;-84
2023/12/21 13:38:15;;;;;;;1.42;0.60;;;;;;;;;;4999431;28;20072;-83
2023/12/21 13:40:41;;;;;;;1.23;0.50;;;;;;;;;;4970190;28;20105;-84
2023/12/21 13:43:28;;;;;;;0.95;0.40;;;;;;;;;;5000553;28;20157;-83
2023/12/21 13:46:03;;;;;;;2.10;0.50;;;;;;;;;;4995229;28;20037;-85
2023/12/21 13:48:29;;;;;;;1.40;0.50;;;;;;;;;;4979468;28;20064;-85
2023/12/21 13:51:02;;;;;;;0.80;0.40;;;;;;;;;;5004311;28;20034;-84
2023/12/21 13:53:28;;;;;;;1.00;0.50;;;;;;;;;;4996039;28;20498;-85
2023/12/21 13:56:11;;;;;;;1.08;0.40;;;;;;;;;;4997731;28;20100;-83
2023/12/21 13:58:37;;;;;;;0.95;0.50;;;;;;;;;;4985419;28;20505;-84
2023/12/21 14:01:17;;;;;;;2.33;0.52;;;;;;;;;;4988717;28;20037;-83
2023/12/21 14:03:51;;;;;;;1.15;0.40;;;;;;;;;;4993662;28;20030;-85
2023/12/21 14:06:19;;;;;;;2.05;0.60;;;;;;;;;;4988087;28;20033;-84
2023/12/21 14:08:50;;;;;;;;;;;;;;;;;;5002843;28;20026;-83
2023/12/21 14:11:16;;;;;;;0.98;0.40;;;;;;;;;;4999272;28;20324;-84
2023/12/21 14:13:44;;;;;;;1.70;0.40;;;;;;;;;;4999096;28;20038;-85
2023/12/21 14:16:11;;;;;;;2.05;0.40;;;;;;;;;;5000235;28;20033;-83
2023/12/21 14:18:37;;;;;;;1.85;0.60;;;;;;;;;;4979943;28;20033;-84
2023/12/21 14:21:05;;;;;;;0.98;0.40;;;;;;;;;;4982526;28;20080;-84
2023/12/21 14:23:31;;;;;;;0.70;0.30;;;;;;;;;;4998770;28;20044;-84
2023/12/21 14:26:08;;;;;;;0.93;0.32;;;;;;;;;;4998678;28;20026;-84
2023/12/21 14:28:34;;;;;;;0.80;0.40;;;;;;;;;;4985533;28;20524;-83
2023/12/21 14:30:59;;;;;;;2.15;0.43;;;;;;;;;;4980952;28;20026;-81
2023/12/21 14:33:25;;;;;;;1.02;0.30;;;;;;;;;;4986560;28;20093;-83
2023/12/21 14:35:50;;;;;;;0.77;0.40;;;;;;;;;;5002170;28;20038;-81
2023/12/21 14:38:15;;;;;;;1.00;0.40;;;;;;;;;;4993730;28;20065;-81
2023/12/21 14:40:45;;;;;;;0.57;0.20;;;;;;;;;;5002909;28;20307;-83
2023/12/21 14:43:13;;;;;;;0.80;0.30;;;;;;;;;;4980263;28;20201;-82
2023/12/21 14:45:43;;;;;;;1.25;0.43;;;;;;;;;;4982230;28;20041;-82